Time;durP1;ratioP1;P1;durP2;ratioP2;P2;SDS_P1;SDS_P2;PMS_P1;PMS_P2;Temp;Humidity;BMP_temperature;BMP_pressure;BME280_temperature;BME280_humidity;BME280_pressure;Samples;Min_cycle;Max_cycle;Signal;HPM_P1;HPM_P2
2022/07/20 00:01:45;;;;;;;;;32.33;29.00;;;;;28.03;46.33;100715.16;5067887;28;45370;-84
2022/07/20 00:04:11;;;;;;;;;27.00;27.00;;;;;28.03;46.67;100715.16;5066668;28;45295;-85
2022/07/20 00:06:36;;;;;;;;;26.67;26.67;;;;;28.04;46.51;100705.13;5069057;28;45437;-84
2022/07/20 00:11:46;;;;;;;;;28.33;27.67;;;;;28.07;47.71;100719.47;5067702;28;45362;-84
2022/07/20 00:14:12;;;;;;;;;25.33;25.33;;;;;28.02;48.18;100718.03;5050492;28;45442;-84
2022/07/20 00:16:38;;;;;;;;;27.00;26.00;;;;;27.93;49.05;100752.22;5068207;28;45651;-84
2022/07/20 00:19:03;;;;;;;;;30.33;28.00;;;;;27.90;48.13;100761.50;5061001;28;47166;-84
2022/07/20 00:21:29;;;;;;;;;23.00;23.00;;;;;27.84;50.42;100760.94;5070571;28;45397;-84
2022/07/20 00:23:56;;;;;;;;;27.00;24.67;;;;;27.76;50.30;100796.03;5070660;28;45482;-84
2022/07/20 00:26:22;;;;;;;;;28.67;27.00;;;;;27.74;49.47;100813.38;5088704;28;45474;-84
2022/07/20 00:28:50;;;;;;;;;24.00;23.67;;;;;27.70;52.71;100830.94;5070540;28;45484;-84
2022/07/20 00:31:16;;;;;;;;;30.00;28.00;;;;;27.59;53.63;100860.72;5069236;28;44838;-84
2022/07/20 00:33:41;;;;;;;;;25.33;25.33;;;;;27.49;54.43;100894.94;5087897;28;44802;-84
2022/07/20 00:36:07;;;;;;;;;32.33;30.00;;;;;27.34;53.68;100913.91;5088911;28;45444;-83
2022/07/20 00:38:32;;;;;;;;;25.67;24.00;;;;;27.29;53.96;100915.16;5092473;28;45246;-84
2022/07/20 00:40:58;;;;;;;;;30.33;28.67;;;;;27.21;53.77;100893.69;5074349;28;45506;-84
2022/07/20 00:43:23;;;;;;;;;29.67;28.00;;;;;27.25;54.24;100888.97;5073027;28;45103;-84
2022/07/20 00:45:48;;;;;;;;;31.67;26.00;;;;;27.23;54.11;100864.47;5076176;28;45346;-84
2022/07/20 00:48:14;;;;;;;;;25.67;24.33;;;;;27.23;53.72;100837.16;5092719;28;45475;-84
2022/07/20 00:50:39;;;;;;;;;30.00;29.00;;;;;27.29;53.65;100812.25;5075494;28;45380;-84
2022/07/20 00:53:06;;;;;;;;;28.00;28.00;;;;;27.12;55.71;100787.69;5088296;28;45409;-83
2022/07/20 00:55:32;;;;;;;;;33.67;29.00;;;;;26.78;70.71;100792.22;5070261;28;45473;-83
2022/07/20 00:57:57;;;;;;;;;28.00;28.00;;;;;26.34;70.73;100765.38;5088275;28;45430;-83
2022/07/20 01:00:23;;;;;;;;;29.67;28.67;;;;;25.97;73.15;100759.06;5069311;28;44790;-83
2022/07/20 01:02:48;;;;;;;;;34.67;31.00;;;;;25.76;68.30;100766.44;5067726;27;45413;-83
2022/07/20 01:05:14;;;;;;;;;33.00;30.33;;;;;25.65;68.13;100763.31;5086597;28;45393;-83
2022/07/20 01:07:48;;;;;;;;;44.00;36.00;;;;;25.64;68.54;100748.84;5071158;28;47034;-83
2022/07/20 01:10:15;;;;;;;;;37.33;32.00;;;;;25.71;69.58;100743.97;5089324;28;45438;-84
2022/07/20 01:12:46;;;;;;;;;44.25;37.75;;;;;25.72;70.21;100721.22;5069138;28;44841;-83
2022/07/20 01:15:12;;;;;;;;;44.25;38.00;;;;;25.69;71.95;100702.28;5087841;28;44828;-84
2022/07/20 01:17:37;;;;;;;;;49.75;42.25;;;;;25.63;76.93;100713.50;5088111;28;46201;-83
2022/07/20 01:20:03;;;;;;;;;54.00;44.75;;;;;25.63;73.40;100705.31;5087164;28;45381;-83
2022/07/20 01:22:28;;;;;;;;;56.75;44.75;;;;;25.62;74.32;100712.63;5069914;28;45443;-83
2022/07/20 01:24:54;;;;;;;;;55.50;45.75;;;;;25.60;72.61;100714.53;5069546;28;45452;-84
2022/07/20 01:27:19;;;;;;;;;54.75;45.00;;;;;25.57;74.26;100725.56;5087149;28;46253;-83
2022/07/20 01:29:44;;;;;;;;;57.75;48.00;;;;;25.60;73.43;100739.06;5086552;28;44752;-84
2022/07/20 01:32:10;;;;;;;;;60.50;49.00;;;;;25.62;72.64;100748.03;5087489;28;45337;-83
2022/07/20 01:34:37;;;;;;;;;59.00;47.00;;;;;25.65;72.88;100746.97;5068976;28;45608;-84
2022/07/20 01:37:02;;;;;;;;;57.75;48.00;;;;;25.68;71.77;100723.22;5087275;28;45404;-84
2022/07/20 01:39:28;;;;;;;;;60.00;49.25;;;;;25.65;73.17;100723.38;5087402;28;45373;-84
2022/07/20 01:41:54;;;;;;;;;56.25;46.75;;;;;25.57;74.15;100730.13;5087287;28;45778;-84
2022/07/20 01:44:23;;;;;;;;;54.00;44.00;;;;;25.53;75.95;100724.84;5069351;28;45264;-84
2022/07/20 01:46:49;;;;;;;;;58.75;47.25;;;;;25.52;75.74;100730.38;5067567;28;47303;-83
2022/07/20 01:49:19;;;;;;;;;54.00;45.00;;;;;25.49;74.51;100727.78;5087083;28;45469;-84
2022/07/20 01:51:45;;;;;;;;;59.75;48.25;;;;;25.49;75.32;100714.16;5068091;28;45504;-83
2022/07/20 01:54:12;;;;;;;;;58.75;48.00;;;;;25.52;73.54;100728.53;5068481;28;45421;-83
2022/07/20 01:56:42;;;;;;;;;58.50;47.75;;;;;25.58;74.43;100737.38;5068547;28;46713;-83
2022/07/20 01:59:08;;;;;;;;;60.50;48.50;;;;;25.60;75.64;100752.66;5067766;28;45422;-83
2022/07/20 02:01:33;;;;;;;;;58.75;48.50;;;;;25.62;74.67;100780.72;5068466;28;45416;-84
2022/07/20 02:03:59;;;;;;;;;59.00;48.25;;;;;25.66;75.24;100804.13;5088582;28;45420;-83
2022/07/20 02:06:24;;;;;;;;;59.50;47.50;;;;;25.72;74.52;100846.53;5071910;28;45451;-83
2022/07/20 02:08:49;;;;;;;;;58.75;47.00;;;;;25.74;76.18;100860.97;5073678;28;45492;-83
2022/07/20 02:11:16;;;;;;;;;59.50;47.75;;;;;25.73;73.80;100865.53;5069177;28;45428;-84
2022/07/20 02:13:41;;;;;;;;;59.75;48.50;;;;;25.70;73.05;100838.44;5069231;28;45428;-83
2022/07/20 02:16:17;;;;;;;;;61.50;49.75;;;;;25.66;74.71;100793.22;5069712;28;45147;-83
2022/07/20 02:18:49;;;;;;;;;62.25;49.75;;;;;25.59;74.14;100791.72;5064599;28;45358;-83
2022/07/20 02:21:18;;;;;;;;;59.25;48.25;;;;;25.59;74.43;100840.75;5063884;28;45386;-83
2022/07/20 02:23:45;;;;;;;;;58.50;47.50;;;;;25.59;73.84;100848.94;5064412;28;45830;-83
2022/07/20 02:26:10;;;;;;;;;61.00;49.50;;;;;25.56;73.18;100851.81;5065338;28;45435;-83
2022/07/20 02:28:36;;;;;;;;;60.50;46.75;;;;;25.55;73.00;100852.75;5064430;28;45393;-83
2022/07/20 02:31:04;;;;;;;;;60.25;48.25;;;;;25.44;76.86;100834.19;5065025;28;45403;-84
2022/07/20 02:36:52;;;;;;;;;61.25;49.75;;;;;25.21;76.92;100839.78;5068663;28;45633;-83
2022/07/20 02:39:17;;;;;;;;;60.00;49.25;;;;;25.22;75.87;100856.06;5068233;28;45456;-84
2022/07/20 02:41:43;;;;;;;;;61.50;50.00;;;;;25.14;75.52;100840.06;5069913;28;45147;-84
2022/07/20 02:44:08;;;;;;;;;62.25;49.50;;;;;25.12;75.16;100836.50;5069729;28;45446;-84
2022/07/20 02:46:34;;;;;;;;;63.00;50.25;;;;;25.12;76.06;100847.41;5052507;28;46693;-83
2022/07/20 02:48:59;;;;;;;;;61.50;49.25;;;;;25.13;75.84;100859.19;5073320;28;44776;-83
2022/07/20 02:51:24;;;;;;;;;64.00;51.50;;;;;25.16;75.46;100862.63;5064876;28;44959;-83
2022/07/20 02:53:50;;;;;;;;;61.75;50.00;;;;;25.25;76.24;100880.47;5063685;28;45381;-83
2022/07/20 02:56:15;;;;;;;;;59.25;48.25;;;;;25.27;76.96;100877.63;5065948;28;45133;-83
2022/07/20 02:58:40;;;;;;;;;62.00;50.50;;;;;25.35;77.51;100898.13;5068816;28;44778;-83
2022/07/20 03:01:06;;;;;;;;;60.75;48.75;;;;;25.38;77.23;100907.13;5068700;28;45529;-83
2022/07/20 03:03:31;;;;;;;;;61.25;50.50;;;;;25.43;77.01;100933.19;5075420;28;44986;-83
2022/07/20 03:05:58;;;;;;;;;61.00;49.00;;;;;25.42;77.12;100931.41;5066975;28;48365;-83
2022/07/20 03:08:23;;;;;;;;;64.00;50.25;;;;;25.46;76.59;100941.22;5074859;28;45437;-83
2022/07/20 03:10:49;;;;;;;;;64.25;51.50;;;;;25.50;77.02;100958.31;5072885;28;45570;-83
2022/07/20 03:13:14;;;;;;;;;65.00;51.00;;;;;25.51;76.47;100957.34;5093369;27;44779;-83
2022/07/20 03:15:39;;;;;;;;;63.25;51.00;;;;;25.50;76.96;100956.47;5075286;28;46884;-85
2022/07/20 03:18:06;;;;;;;;;60.50;49.50;;;;;25.48;77.88;100965.66;5093279;28;45440;-84
2022/07/20 03:20:33;;;;;;;;;61.00;49.50;;;;;25.47;78.41;100982.94;5070584;28;44768;-84
2022/07/20 03:23:05;;;;;;;;;62.00;50.50;;;;;25.40;77.50;100976.88;5069410;28;45236;-84
2022/07/20 03:25:31;;;;;;;;;61.50;50.25;;;;;25.42;77.65;100945.03;5088001;28;45422;-84
2022/07/20 03:27:58;;;;;;;;;63.75;51.25;;;;;25.48;77.22;100958.38;5069535;28;45385;-84
2022/07/20 03:30:25;;;;;;;;;61.00;50.00;;;;;25.46;78.63;100934.88;5070528;28;45713;-84
2022/07/20 03:32:51;;;;;;;;;62.25;50.00;;;;;25.44;77.68;100934.94;5091885;28;44770;-84
2022/07/20 03:35:17;;;;;;;;;62.00;50.00;;;;;25.39;78.05;100939.72;5094204;28;45464;-83
2022/07/20 03:37:42;;;;;;;;;55.75;46.00;;;;;25.45;77.98;100941.28;5094409;28;45813;-84
2022/07/20 03:40:08;;;;;;;;;57.25;45.00;;;;;25.48;77.87;100941.16;5076390;28;45555;-84
2022/07/20 03:42:36;;;;;;;;;60.25;49.25;;;;;25.50;76.91;100959.19;5094882;28;45457;-84
2022/07/20 03:45:02;;;;;;;;;57.25;47.25;;;;;25.50;77.96;100961.03;5076650;28;47376;-84
2022/07/20 03:47:28;;;;;;;;;60.75;49.00;;;;;25.44;79.96;100943.13;5076379;28;45367;-84
2022/07/20 03:49:53;;;;;;;;;58.25;47.75;;;;;25.42;81.11;100949.59;5088938;28;45409;-84
2022/07/20 03:52:20;;;;;;;;;62.25;50.00;;;;;25.37;82.29;100971.59;5089533;28;45453;-84
2022/07/20 03:54:45;;;;;;;;;56.75;46.50;;;;;25.31;82.57;100975.47;5071113;28;47377;-84
2022/07/20 03:57:11;;;;;;;;;57.75;46.50;;;;;25.28;84.07;100996.47;5088579;28;44799;-84
2022/07/20 03:59:37;;;;;;;;;60.00;48.00;;;;;25.20;86.29;100985.88;5088151;28;45494;-84
2022/07/20 04:02:03;;;;;;;;;56.75;47.00;;;;;25.24;88.39;100993.00;5070012;28;45521;-84
2022/07/20 04:04:30;;;;;;;;;59.25;48.25;;;;;25.21;89.29;101006.75;5074547;28;46915;-83
2022/07/20 04:06:56;;;;;;;;;57.50;47.25;;;;;25.15;91.00;101010.59;5073550;28;45449;-83
2022/07/20 04:12:07;;;;;;;;;48.00;41.00;;;;;24.86;88.82;100998.19;5079665;28;45342;-84
2022/07/20 04:14:39;;;;;;;;;44.50;36.75;;;;;24.77;89.75;100982.25;5071390;28;46713;-83
2022/07/20 04:17:05;;;;;;;;;47.00;39.25;;;;;24.64;87.12;100980.97;5072632;28;45358;-83
2022/07/20 04:19:30;;;;;;;;;46.25;39.00;;;;;24.65;85.73;100982.75;5090455;28;45286;-83
2022/07/20 04:21:58;;;;;;;;;33.33;32.00;;;;;24.59;83.21;100978.44;5088777;28;44856;-83
2022/07/20 04:24:24;;;;;;;;;35.67;33.00;;;;;24.45;82.16;100980.81;5089229;28;45445;-84
2022/07/20 04:26:50;;;;;;;;;34.00;32.33;;;;;24.41;81.00;100990.91;5072200;28;45366;-83
2022/07/20 04:35:59;;;;;;;;;31.67;28.67;;;;;24.35;81.19;100921.34;5091304;27;44899;-83
2022/07/20 04:38:25;;;;;;;;;35.00;31.00;;;;;24.26;82.42;100894.56;5091440;28;45467;-84
2022/07/20 04:40:50;;;;;;;;;30.33;28.33;;;;;24.06;91.36;100898.09;5072649;28;45107;-83
2022/07/20 04:43:15;;;;;;;;;33.67;31.33;;;;;23.80;94.71;100879.22;5074383;28;45360;-82
2022/07/20 04:45:41;;;;;;;;;35.00;30.00;;;;;23.78;94.94;100892.84;5075261;28;47845;-83
2022/07/20 04:48:06;;;;;;;;;33.00;32.00;;;;;23.72;86.47;100904.78;5071426;28;44722;-84
2022/07/20 04:50:32;;;;;;;;;35.33;32.00;;;;;23.78;85.84;100914.56;5088863;28;45406;-84
2022/07/20 04:52:57;;;;;;;;;34.67;32.00;;;;;23.81;87.44;100910.84;5088630;28;45325;-83
2022/07/20 04:55:23;;;;;;;;;32.67;31.67;;;;;23.89;86.74;100935.88;5070042;28;47052;-83
2022/07/20 04:57:49;;;;;;;;;38.00;32.00;;;;;23.86;89.10;100945.03;5070286;28;45332;-84
2022/07/20 05:00:15;;;;;;;;;35.67;33.00;;;;;23.83;89.77;100966.88;5088361;28;45483;-83
2022/07/20 05:02:40;;;;;;;;;39.67;33.67;;;;;23.76;89.04;100987.03;5091118;28;45319;-83
2022/07/20 05:05:06;;;;;;;;;35.33;30.33;;;;;23.74;88.47;101006.09;5072191;28;47591;-84
2022/07/20 05:07:32;;;;;;;;;33.00;32.00;;;;;23.61;91.01;100993.88;5072750;28;44883;-84
2022/07/20 05:09:57;;;;;;;;;39.00;32.00;;;;;23.57;90.90;101008.50;5073432;28;45532;-84
2022/07/20 05:12:23;;;;;;;;;36.00;32.67;;;;;23.48;90.50;100981.72;5089802;28;44835;-84
2022/07/20 05:14:49;;;;;;;;;30.00;29.33;;;;;23.41;90.32;100981.06;5089910;28;46358;-84
2022/07/20 05:17:15;;;;;;;;;30.33;30.00;;;;;23.38;92.90;100992.00;5088252;28;45369;-84
2022/07/20 05:19:41;;;;;;;;;32.33;30.00;;;;;23.33;93.73;100994.91;5088252;28;45298;-83
2022/07/20 05:22:06;;;;;;;;;31.33;29.33;;;;;23.24;91.99;100988.88;5070776;28;45575;-83
2022/07/20 05:24:32;;;;;;;;;30.00;28.67;;;;;23.31;90.99;100988.63;5070709;28;47125;-83
2022/07/20 05:26:57;;;;;;;;;32.33;30.00;;;;;23.32;91.44;100979.53;5070518;28;45277;-83
2022/07/20 05:29:23;;;;;;;;;30.00;29.00;;;;;23.39;90.44;100946.75;5070388;28;45417;-83
2022/07/20 05:31:48;;;;;;;;;33.33;31.67;;;;;23.46;90.22;100923.88;5089226;28;45439;-83
2022/07/20 05:34:14;;;;;;;;;21.33;19.00;;;;;23.49;88.15;100899.31;5073300;28;46538;-83
2022/07/20 05:36:41;;;;;;;;;31.67;30.67;;;;;23.55;88.00;100874.66;5093272;28;45180;-83
2022/07/20 05:39:09;;;;;;;;;28.67;28.67;;;;;23.56;87.08;100873.72;5074224;28;44801;-83
2022/07/20 05:41:35;;;;;;;;;32.67;31.00;;;;;23.57;90.44;100910.78;5073864;28;45516;-83
2022/07/20 05:44:00;;;;;;;;;24.67;24.00;;;;;23.50;89.56;100925.53;5090693;28;46915;-84
2022/07/20 05:46:26;;;;;;;;;36.00;30.33;;;;;23.48;89.96;100943.72;5091684;27;45436;-83
2022/07/20 05:48:51;;;;;;;;;32.67;29.67;;;;;23.46;89.55;100957.34;5070650;28;45311;-83
2022/07/20 05:51:17;;;;;;;;;35.00;32.33;;;;;23.47;90.33;100963.63;5069879;28;45482;-83
2022/07/20 05:53:42;;;;;;;;;34.67;32.00;;;;;23.50;90.41;100956.28;5068579;28;47473;-83
2022/07/20 05:56:07;;;;;;;;;27.67;27.67;;;;;23.51;89.94;100955.34;5087421;28;45322;-83
2022/07/20 05:58:33;;;;;;;;;30.00;29.00;;;;;23.55;89.65;100954.28;5089034;28;45221;-83
2022/07/20 06:00:58;;;;;;;;;30.00;29.00;;;;;23.55;89.73;100965.16;5070993;28;45309;-84
2022/07/20 06:03:24;;;;;;;;;35.00;32.00;;;;;23.55;88.87;100959.72;5088342;28;45986;-84
2022/07/20 06:05:49;;;;;;;;;29.00;28.67;;;;;23.48;88.15;100946.44;5070776;28;45446;-83
2022/07/20 06:11:36;;;;;;;;;29.00;28.00;;;;;23.47;87.55;100952.78;5081917;28;44859;-83
2022/07/20 06:14:07;;;;;;;;;34.00;32.00;;;;;23.45;87.35;100946.53;5051670;28;46019;-83
2022/07/20 06:17:31;;;;;;;;;;;;;;;;;;;;;
2022/07/20 06:20:12;;;;;;;;;32.67;31.33;;;;;23.56;86.09;100957.88;5058340;28;45577;-88
2022/07/20 06:22:40;;;;;;;;;33.33;32.00;;;;;23.43;85.24;100951.13;5067811;28;44899;-86
2022/07/20 06:25:12;;;;;;;;;38.00;33.67;;;;;23.45;86.75;100981.81;5067780;28;47029;-87
2022/07/20 06:27:38;;;;;;;;;36.00;33.00;;;;;23.51;85.88;101020.50;5085129;28;45283;-87
2022/07/20 06:30:06;;;;;;;;;29.67;28.67;;;;;23.34;86.65;100996.66;5068453;28;45304;-88
2022/07/20 06:32:32;;;;;;;;;30.33;28.67;;;;;23.40;87.37;101016.38;5069113;28;44976;-88
2022/07/20 06:34:58;;;;;;;;;28.33;26.33;;;;;23.28;86.64;101024.00;5087415;28;47123;-87
2022/07/20 06:37:24;;;;;;;;;33.33;31.67;;;;;23.25;87.93;101029.56;5070436;28;45648;-88
2022/07/20 06:39:56;;;;;;;;;26.33;25.00;;;;;23.22;88.83;101037.78;5055562;28;45392;-87
2022/07/20 06:42:21;;;;;;;;;31.00;28.00;;;;;22.97;89.73;101003.31;5073756;28;45493;-86
2022/07/20 06:44:53;;;;;;;;;30.33;28.33;;;;;22.87;90.06;101007.25;5071055;28;45631;-87
2022/07/20 06:50:37;;;;;;;;;31.00;29.67;;;;;22.70;92.48;100977.09;4994175;28;45016;-87
2022/07/20 06:53:35;;;;;;;;;28.67;28.67;;;;;22.71;93.59;100995.16;5080766;28;45461;-87
2022/07/20 06:56:09;;;;;;;;;28.67;25.67;;;;;22.56;93.55;100986.56;5078223;28;45477;-87
2022/07/20 06:59:50;;;;;;;;;;;;;;;;;;;;;
2022/07/20 07:02:53;;;;;;;;;28.67;27.67;;;;;22.74;93.08;100995.03;4993205;28;45413;-87
2022/07/20 07:12:59;;;;;;;;;28.00;28.00;;;;;22.68;93.78;100997.94;5010445;28;45213;-86
2022/07/20 07:20:00;;;;;;;;;32.33;29.67;;;;;22.69;92.47;101029.56;4993604;28;45304;-86
2022/07/20 07:23:17;;;;;;;;;;;;;;;;;;;;;
2022/07/20 08:13:05;;;;;;;;;28.67;28.00;;;;;24.17;85.92;101041.69;3118661;26;45706;-87
2022/07/20 08:15:50;;;;;;;;;29.67;29.67;;;;;24.64;85.13;101087.03;4967790;28;44768;-87
2022/07/20 08:18:26;;;;;;;;;25.67;25.00;;;;;24.75;82.89;101068.47;4975037;28;45227;-87
2022/07/20 08:21:11;;;;;;;;;31.67;30.33;;;;;25.07;81.87;101093.50;4958082;28;44843;-87
2022/07/20 08:24:14;;;;;;;;;27.67;26.33;;;;;24.95;80.56;101068.56;4972834;28;45171;-85
2022/07/20 08:31:06;;;;;;;;;;;;;;;;;;;;;
2022/07/20 08:34:10;;;;;;;;;22.33;21.67;;;;;25.13;78.24;101057.88;4842081;29;66539;-87
2022/07/20 08:37:29;;;;;;;;;30.67;29.33;;;;;25.30;77.95;101066.22;5088032;22;45772;-86
2022/07/20 08:46:12;;;;;;;;;20.00;20.00;;;;;25.45;75.80;101082.88;5101274;22;47138;-85
2022/07/20 08:48:49;;;;;;;;;18.67;18.67;;;;;25.53;75.83;101091.59;4978516;28;46919;-87
2022/07/20 08:51:48;;;;;;;;;25.67;24.67;;;;;25.48;76.07;101088.19;4976980;28;44868;-87
2022/07/20 08:54:14;;;;;;;;;19.67;19.67;;;;;25.37;75.63;101085.03;4979306;28;45797;-86
2022/07/20 08:57:15;;;;;;;;;18.67;18.67;;;;;25.34;75.66;101103.28;4964776;28;44810;-86
2022/07/20 09:00:14;;;;;;;;;21.33;20.00;;;;;25.26;75.32;101097.25;4976201;28;45537;-86
2022/07/20 09:03:04;;;;;;;;;21.00;21.00;;;;;25.11;75.55;101073.38;4987302;28;45535;-86
2022/07/20 09:05:35;;;;;;;;;15.00;15.00;;;;;25.02;75.48;101052.84;4981781;28;45413;-86
2022/07/20 09:08:19;;;;;;;;;16.00;16.00;;;;;25.34;75.60;101086.94;4980576;28;45348;-85
2022/07/20 09:10:54;;;;;;;;;19.33;19.33;;;;;25.37;75.11;101057.81;4974970;28;45845;-86
2022/07/20 09:14:48;;;;;;;;;;;;;;;;;;;;;
2022/07/20 09:18:08;;;;;;;;;17.33;17.33;;;;;25.87;73.43;101062.88;4878889;29;45001;-86
2022/07/20 09:20:41;;;;;;;;;15.67;15.67;;;;;26.07;72.25;101062.91;4870031;29;44885;-86
2022/07/20 09:23:54;;;;;;;;;14.67;14.67;;;;;26.28;72.07;101082.88;4861403;29;46605;-86
2022/07/20 09:27:31;;;;;;;;;;;;;;;;;;;;;
2022/07/20 10:41:31;;;;;;;;;16.00;16.00;;;;;25.79;69.01;101123.16;4956528;28;45314;-87
2022/07/20 10:50:33;;;;;;;;;12.33;12.33;;;;;25.42;69.78;101132.03;4954862;28;44823;-85
2022/07/20 10:53:11;;;;;;;;;12.33;9.67;;;;;25.25;70.05;101130.91;4967071;28;44855;-86
2022/07/20 10:56:53;;;;;;;;;16.67;16.67;;;;;25.17;70.79;101122.13;5373101;23;45531;-85
2022/07/20 10:59:26;;;;;;;;;10.33;10.33;;;;;24.99;70.55;101117.44;4969884;28;45136;-84
2022/07/20 11:01:52;;;;;;;;;13.00;12.33;;;;;25.00;70.67;101114.63;4937960;28;45287;-82
2022/07/20 11:04:27;;;;;;;;;12.00;12.00;;;;;25.11;71.33;101116.94;4968556;28;45575;-83
2022/07/20 11:07:47;;;;;;;;;12.33;12.33;;;;;25.32;70.50;101131.53;4981553;28;45543;-84
2022/07/20 11:13:35;;;;;;;;;16.00;14.00;;;;;25.40;69.15;101117.59;4942477;28;45532;-84
2022/07/20 11:16:03;;;;;;;;;12.67;12.67;;;;;25.49;69.83;101138.97;4965322;28;45501;-85
2022/07/20 11:18:30;;;;;;;;;13.00;11.00;;;;;25.44;69.44;101135.56;4973572;28;45848;-84
2022/07/20 11:21:08;;;;;;;;;13.00;13.00;;;;;25.47;68.93;101127.25;4955121;28;45378;-85
2022/07/20 11:24:31;;;;;;;;;8.67;8.67;;;;;25.40;68.90;101131.22;4977464;28;45360;-82
2022/07/20 11:27:16;;;;;;;;;14.67;14.67;;;;;25.30;69.47;101127.97;4920452;28;45012;-80
2022/07/20 11:29:46;;;;;;;;;13.33;13.33;;;;;25.12;68.95;101111.41;4947051;28;45180;-81
2022/07/20 11:32:13;;;;;;;;;14.33;13.67;;;;;25.21;69.66;101122.84;4977308;28;45395;-82
2022/07/20 11:34:58;;;;;;;;;12.00;11.00;;;;;25.21;69.41;101118.38;4958571;28;45438;-82
2022/07/20 11:41:01;;;;;;;;;11.67;10.67;;;;;25.16;69.53;101115.78;4893413;28;47006;-81
2022/07/20 11:43:27;;;;;;;;;15.33;14.33;;;;;25.08;69.14;101098.88;4891991;29;45486;-83
2022/07/20 11:46:22;;;;;;;;;12.33;11.33;;;;;25.05;68.97;101095.41;4892637;29;45336;-84
2022/07/20 11:49:05;;;;;;;;;12.00;12.00;;;;;25.17;69.27;101116.69;4896611;29;44879;-83
2022/07/20 11:51:40;;;;;;;;;13.00;13.00;;;;;25.24;69.81;101112.78;4898824;28;45560;-81
2022/07/20 11:54:06;;;;;;;;;11.00;11.00;;;;;25.32;68.98;101104.28;4897762;28;45348;-84
2022/07/20 11:56:44;;;;;;;;;14.33;12.67;;;;;25.54;68.81;101104.28;4896787;29;45309;-83
2022/07/20 11:59:09;;;;;;;;;11.00;10.67;;;;;25.71;68.45;101096.28;4886054;29;44892;-83
2022/07/20 12:04:24;;;;;;;;;14.67;14.67;;;;;26.04;67.39;101063.06;4897509;29;45271;-81
2022/07/20 12:06:58;;;;;;;;;10.67;10.67;;;;;26.25;66.83;101069.34;4898582;29;44793;-83
2022/07/20 12:09:35;;;;;;;;;11.33;11.00;;;;;26.41;65.73;101063.19;4900167;28;45473;-82
2022/07/20 12:12:04;;;;;;;;;13.67;13.67;;;;;26.65;65.25;101072.97;4882542;29;47104;-81
2022/07/20 12:14:42;;;;;;;;;12.67;11.00;;;;;26.93;63.44;101069.78;4890119;29;45324;-81
2022/07/20 12:17:45;;;;;;;;;11.00;11.00;;;;;27.04;63.78;101071.09;4944331;28;45572;-81
2022/07/20 12:20:12;;;;;;;;;12.00;12.00;;;;;27.20;62.83;101069.38;4953216;28;46053;-81
2022/07/20 12:22:49;;;;;;;;;14.00;12.00;;;;;27.28;62.52;101075.38;4954020;28;45507;-84
2022/07/20 12:25:15;;;;;;;;;14.67;12.00;;;;;27.27;62.79;101075.47;4957629;28;44819;-83
2022/07/20 12:27:42;;;;;;;;;13.33;13.00;;;;;27.20;62.01;101053.00;4957026;28;45364;-82
2022/07/20 12:30:31;;;;;;;;;11.33;11.00;;;;;27.43;62.11;101072.81;4956980;28;44775;-82
2022/07/20 12:33:22;;;;;;;;;11.33;11.33;;;;;27.50;61.73;101072.44;4952907;28;45296;-82
2022/07/20 12:39:12;;;;;;;;;14.00;12.00;;;;;26.86;62.93;101076.50;4955423;28;45032;-79
2022/07/20 12:41:40;;;;;;;;;13.67;12.00;;;;;26.61;63.17;101067.75;4951987;28;45621;-80
2022/07/20 12:44:31;;;;;;;;;18.33;16.67;;;;;26.80;63.66;101075.91;4954106;28;45344;-84
2022/07/20 12:46:58;;;;;;;;;15.33;14.33;;;;;27.05;62.85;101065.59;4952167;28;45453;-82
2022/07/20 12:49:26;;;;;;;;;12.00;12.00;;;;;27.30;61.65;101064.38;4954277;28;45300;-80
2022/07/20 12:51:54;;;;;;;;;11.00;10.33;;;;;27.48;61.05;101068.03;4947698;28;45574;-80
2022/07/20 12:54:35;;;;;;;;;11.33;11.33;;;;;27.54;61.14;101062.25;4943609;28;47491;-80
2022/07/20 12:57:02;;;;;;;;;9.33;9.33;;;;;27.65;59.90;101064.41;4944615;28;45617;-80
2022/07/20 12:59:31;;;;;;;;;11.00;11.00;;;;;27.65;59.36;101067.13;4961690;28;45455;-80
2022/07/20 13:01:56;;;;;;;;;11.67;9.67;;;;;27.78;59.39;101072.84;4942305;28;45483;-80
2022/07/20 13:12:04;;;;;;;;;;;;;;;;;;;;;
2022/07/20 13:14:25;;;;;;;;;15.00;15.00;;;;;27.78;58.30;101042.78;4870489;29;44873;-80
2022/07/20 13:16:54;;;;;;;;;13.67;13.67;;;;;27.53;58.99;101035.88;4869048;29;46394;-79
2022/07/20 13:19:21;;;;;;;;;12.00;12.00;;;;;27.48;60.10;101027.91;4849763;29;46701;-78
2022/07/20 13:21:47;;;;;;;;;11.67;11.67;;;;;27.39;59.57;101013.84;4871124;29;45587;-79
2022/07/20 13:24:14;;;;;;;;;13.33;13.33;;;;;27.40;60.44;101032.91;4868351;29;45527;-80
2022/07/20 13:26:59;;;;;;;;;13.00;13.00;;;;;27.11;60.37;101004.34;4861910;29;47520;-80
2022/07/20 13:29:52;;;;;;;;;13.33;13.00;;;;;27.06;61.21;101014.59;4852170;29;45337;-80
2022/07/20 13:32:17;;;;;;;;;17.33;14.00;;;;;27.12;61.46;101028.81;4851735;29;45355;-80
2022/07/20 13:34:43;;;;;;;;;12.00;12.00;;;;;27.12;61.32;101033.38;4861366;29;45516;-80
2022/07/20 13:37:10;;;;;;;;;12.67;12.67;;;;;27.22;62.18;101017.44;4873939;29;47888;-81
2022/07/20 13:39:37;;;;;;;;;14.33;13.33;;;;;27.45;61.09;101008.97;4860061;29;45473;-81
2022/07/20 13:42:02;;;;;;;;;12.67;12.67;;;;;27.63;60.51;101014.41;4858202;29;44831;-79
2022/07/20 13:44:44;;;;;;;;;12.00;11.33;;;;;27.72;60.32;101012.09;4870487;29;45463;-79
2022/07/20 13:47:12;;;;;;;;;16.00;16.00;;;;;27.83;59.45;101016.09;4901997;28;45457;-80
2022/07/20 13:49:41;;;;;;;;;12.33;12.33;;;;;27.81;60.25;101012.56;4934631;28;45439;-83
2022/07/20 13:52:07;;;;;;;;;14.00;14.00;;;;;27.93;59.31;101006.44;4967892;28;44969;-82
2022/07/20 13:54:36;;;;;;;;;12.67;12.67;;;;;28.64;57.07;101002.53;4959255;28;45573;-82
2022/07/20 13:57:33;;;;;;;;;9.67;9.67;;;;;29.80;53.36;100981.03;4987768;28;47764;-83
2022/07/20 14:00:03;;;;;;;;;13.33;12.33;;;;;31.64;47.60;100976.16;4955353;28;45432;-85
2022/07/20 14:02:32;;;;;;;;;16.00;16.00;;;;;31.49;46.39;100990.97;4968802;28;44802;-84
2022/07/20 14:04:57;;;;;;;;;12.00;11.33;;;;;30.14;49.12;100992.59;4955890;28;45220;-83
2022/07/20 14:07:31;;;;;;;;;10.67;10.67;;;;;29.13;52.20;100991.50;4953783;28;45717;-83
2022/07/20 14:10:06;;;;;;;;;11.67;10.67;;;;;28.58;54.79;100997.41;4967770;28;45443;-84
2022/07/20 14:12:31;;;;;;;;;11.33;11.33;;;;;28.23;56.27;101000.28;4951573;28;45331;-83
2022/07/20 14:14:57;;;;;;;;;13.00;12.67;;;;;28.02;56.70;100997.75;4954402;28;44750;-82
2022/07/20 14:17:24;;;;;;;;;13.00;12.33;;;;;27.84;57.62;101001.47;4945417;28;46516;-83
2022/07/20 14:19:50;;;;;;;;;12.67;12.67;;;;;27.69;58.05;100998.59;4941149;28;45442;-83
2022/07/20 14:22:31;;;;;;;;;15.67;15.33;;;;;27.56;58.67;101002.06;4947457;28;44856;-82
2022/07/20 14:25:02;;;;;;;;;15.33;12.67;;;;;27.38;59.88;101012.09;4935385;28;45410;-83
2022/07/20 14:27:54;;;;;;;;;17.67;16.00;;;;;27.16;62.74;101018.63;4940768;28;45497;-83
2022/07/20 14:30:19;;;;;;;;;14.00;11.33;;;;;26.79;63.34;101020.47;4944584;28;45353;-82
2022/07/20 14:32:45;;;;;;;;;13.67;12.00;;;;;26.44;64.34;100993.03;4950142;28;45429;-82
2022/07/20 14:35:10;;;;;;;;;16.33;16.33;;;;;26.37;67.29;100997.00;4953421;28;45405;-81
2022/07/20 14:37:37;;;;;;;;;17.33;14.67;;;;;26.17;67.02;101006.13;4946978;28;46892;-81
2022/07/20 14:40:09;;;;;;;;;19.67;15.33;;;;;25.89;70.77;101001.03;4967294;28;45415;-83
2022/07/20 14:42:35;;;;;;;;;13.67;13.67;;;;;25.66;73.87;101015.69;4951071;28;45455;-82
2022/07/20 14:45:01;;;;;;;;;16.00;15.00;;;;;25.48;72.08;101031.88;4951899;28;45390;-82
2022/07/20 14:47:26;;;;;;;;;11.67;11.67;;;;;25.44;74.93;101048.44;4943059;28;47152;-82
2022/07/20 14:49:53;;;;;;;;;12.33;10.67;;;;;25.34;73.69;101057.00;4950685;28;44854;-83
2022/07/20 14:52:19;;;;;;;;;10.00;10.00;;;;;25.30;71.85;101046.31;4945925;28;45462;-84